createdAt,value
2023-05-15T00:00:40.027Z,15.80
2023-05-15T00:03:31.617Z,15.80
2023-05-15T00:06:02.913Z,15.80
2023-05-15T00:08:35.303Z,15.80
2023-05-15T00:11:07.378Z,15.70
2023-05-15T00:13:41.910Z,15.70
2023-05-15T00:16:13.625Z,15.70
2023-05-15T00:18:46.408Z,15.70
2023-05-15T00:21:18.284Z,15.60
2023-05-15T00:23:50.852Z,15.60
2023-05-15T00:26:23.230Z,15.60
2023-05-15T00:28:58.354Z,15.50
2023-05-15T00:31:30.503Z,15.50
2023-05-15T00:34:07.431Z,15.50
2023-05-15T00:36:39.241Z,15.40
2023-05-15T00:39:11.736Z,15.40
2023-05-15T00:41:45.665Z,15.40
2023-05-15T00:44:22.296Z,15.40
2023-05-15T00:46:56.885Z,15.30
2023-05-15T00:49:30.320Z,15.30
2023-05-15T00:52:04.084Z,15.30
2023-05-15T00:54:37.561Z,15.30
2023-05-15T00:57:11.790Z,15.20
2023-05-15T00:59:46.984Z,15.20
2023-05-15T01:02:21.784Z,15.20
2023-05-15T01:04:53.946Z,15.20
2023-05-15T01:07:25.539Z,15.20
2023-05-15T01:09:59.224Z,15.10
2023-05-15T01:12:35.576Z,15.10
2023-05-15T01:15:11.550Z,15.10
2023-05-15T01:17:43.198Z,15.10
2023-05-15T01:20:21.056Z,15.10
2023-05-15T01:23:02.484Z,15.10
2023-05-15T01:26:06.213Z,15.10
2023-05-15T01:28:48.202Z,15.00
2023-05-15T01:31:25.938Z,15.00
2023-05-15T01:34:02.847Z,15.00
2023-05-15T01:36:42.416Z,14.90
2023-05-15T01:39:16.170Z,14.90
2023-05-15T01:42:07.448Z,14.90
2023-05-15T01:45:17.092Z,14.80
2023-05-15T01:48:57.284Z,14.80
2023-05-15T01:52:13.930Z,14.70
2023-05-15T01:55:04.682Z,14.70
2023-05-15T01:57:46.045Z,14.60
2023-05-15T02:00:23.185Z,14.60
2023-05-15T02:03:07.188Z,14.50
2023-05-15T02:05:42.354Z,14.50
2023-05-15T02:08:36.410Z,14.50
2023-05-15T02:11:09.051Z,14.50
2023-05-15T02:13:41.069Z,14.40
2023-05-15T02:16:41.272Z,14.40
2023-05-15T02:19:51.142Z,14.40
2023-05-15T02:22:57.144Z,14.40
2023-05-15T02:25:58.191Z,14.40
2023-05-15T02:29:04.155Z,14.40
2023-05-15T02:31:54.564Z,14.40
2023-05-15T02:34:52.643Z,14.40
2023-05-15T02:38:25.348Z,14.40
2023-05-15T02:41:22.732Z,14.40
2023-05-15T02:43:57.719Z,14.40
2023-05-15T02:46:31.115Z,14.40
2023-05-15T02:49:06.446Z,14.40
2023-05-15T02:51:39.171Z,14.40
2023-05-15T02:54:15.920Z,14.40
2023-05-15T02:57:09.359Z,14.50
2023-05-15T02:59:41.859Z,14.50
2023-05-15T03:02:13.248Z,14.60
2023-05-15T03:04:49.521Z,14.60
2023-05-15T03:07:23.303Z,14.60
2023-05-15T03:09:55.679Z,14.60
2023-05-15T03:12:27.456Z,14.60
2023-05-15T03:15:02.782Z,14.50
2023-05-15T03:17:41.496Z,14.50
2023-05-15T03:20:18.264Z,14.50
2023-05-15T03:23:07.527Z,14.50
2023-05-15T03:25:38.878Z,14.40
2023-05-15T03:28:21.878Z,14.50
2023-05-15T03:30:57.085Z,14.40
2023-05-15T03:33:29.882Z,14.40
2023-05-15T03:36:04.297Z,14.40
2023-05-15T03:39:06.357Z,14.40
2023-05-15T03:41:55.633Z,14.40
2023-05-15T03:44:32.617Z,14.40
2023-05-15T03:47:04.075Z,14.40
2023-05-15T03:49:45.461Z,14.40
2023-05-15T03:52:49.184Z,14.40
2023-05-15T03:55:27.375Z,14.40
2023-05-15T03:58:12.235Z,14.40
2023-05-15T04:03:42.080Z,14.50
2023-05-15T04:06:20.289Z,14.40
2023-05-15T04:08:54.430Z,14.40
2023-05-15T04:11:37.219Z,14.50
2023-05-15T04:14:16.580Z,14.50
2023-05-15T04:17:00.037Z,14.50
2023-05-15T04:19:32.484Z,14.50
2023-05-15T04:22:14.148Z,14.50
2023-05-15T04:24:50.513Z,14.50
2023-05-15T04:27:27.247Z,14.50
2023-05-15T04:29:59.961Z,14.50
2023-05-15T04:32:38.141Z,14.50
2023-05-15T04:35:12.908Z,14.50
2023-05-15T04:37:53.649Z,14.60
2023-05-15T04:40:30.574Z,14.60
2023-05-15T04:43:24.827Z,14.60
2023-05-15T04:45:59.639Z,14.70
2023-05-15T04:48:35.197Z,14.70
2023-05-15T04:51:22.551Z,14.80
2023-05-15T04:54:07.803Z,14.80
2023-05-15T04:56:44.620Z,14.80
2023-05-15T04:59:16.992Z,14.90
2023-05-15T05:01:48.397Z,14.90
2023-05-15T05:04:21.872Z,15.00
2023-05-15T05:06:59.195Z,15.00
2023-05-15T05:09:30.724Z,15.00
2023-05-15T05:12:07.957Z,15.00
2023-05-15T05:14:42.550Z,15.00
2023-05-15T05:17:17.500Z,15.10
2023-05-15T05:19:54.872Z,15.10
2023-05-15T05:22:37.704Z,15.10
2023-05-15T05:25:30.479Z,15.10
2023-05-15T05:28:07.878Z,15.20
2023-05-15T05:30:41.875Z,15.20
2023-05-15T05:33:17.837Z,15.20
2023-05-15T05:35:50.070Z,15.30
2023-05-15T05:38:21.741Z,15.30
2023-05-15T05:40:54.696Z,15.30
2023-05-15T05:43:34.324Z,15.40
2023-05-15T05:46:08.487Z,15.40
2023-05-15T05:48:45.165Z,15.40
2023-05-15T05:51:18.456Z,15.50
2023-05-15T05:53:49.377Z,15.50
2023-05-15T05:56:22.090Z,15.50
2023-05-15T05:58:56.774Z,15.60
2023-05-15T06:01:31.426Z,15.60
2023-05-15T06:04:03.919Z,15.70
2023-05-15T06:06:36.058Z,15.80
2023-05-15T06:09:08.206Z,15.80
2023-05-15T06:11:49.026Z,16.00
2023-05-15T06:14:29.643Z,16.00
2023-05-15T06:17:16.681Z,16.20
2023-05-15T06:19:48.945Z,16.30
2023-05-15T06:22:29.410Z,16.40
2023-05-15T06:25:00.864Z,16.50
2023-05-15T06:27:36.835Z,16.60
2023-05-15T06:30:17.362Z,16.70
2023-05-15T06:32:49.779Z,16.80
2023-05-15T06:35:29.297Z,16.90
2023-05-15T06:38:02.377Z,17.00
2023-05-15T06:40:33.783Z,17.00
2023-05-15T06:43:12.207Z,17.20
2023-05-15T06:45:53.934Z,17.20
2023-05-15T06:48:28.448Z,17.30
2023-05-15T06:51:15.857Z,17.40
2023-05-15T06:53:51.824Z,17.50
2023-05-15T06:56:34.424Z,17.60
2023-05-15T06:59:07.947Z,17.60
2023-05-15T07:01:48.767Z,17.60
2023-05-15T07:04:49.836Z,17.70
2023-05-15T07:07:24.375Z,17.70
2023-05-15T07:10:08.512Z,17.70
2023-05-15T07:12:52.964Z,17.80
2023-05-15T07:15:28.751Z,17.90
2023-05-15T07:18:06.554Z,18.00
2023-05-15T07:20:48.822Z,18.10
2023-05-15T07:23:20.414Z,18.20
2023-05-15T07:26:01.030Z,18.30
2023-05-15T07:28:35.158Z,18.50
2023-05-15T07:31:10.079Z,18.60
2023-05-15T07:33:47.630Z,18.70
2023-05-15T07:36:20.986Z,18.70
2023-05-15T07:38:55.990Z,18.80
2023-05-15T07:41:31.159Z,18.90
2023-05-15T07:44:14.702Z,18.90
2023-05-15T07:46:57.917Z,18.90
2023-05-15T07:49:39.530Z,19.00
2023-05-15T07:52:24.666Z,19.00
2023-05-15T07:55:07.375Z,19.00
2023-05-15T07:57:40.578Z,19.10
2023-05-15T08:00:16.167Z,19.10
2023-05-15T08:02:50.584Z,19.20
2023-05-15T08:05:33.240Z,19.30
2023-05-15T08:08:09.785Z,19.30
2023-05-15T08:10:49.313Z,19.30
2023-05-15T08:13:31.382Z,19.30
2023-05-15T08:16:08.246Z,19.30
2023-05-15T08:18:47.149Z,19.40
2023-05-15T08:21:29.273Z,19.40
2023-05-15T08:24:09.717Z,19.40
2023-05-15T08:26:42.281Z,19.40
2023-05-15T08:29:17.295Z,19.40
2023-05-15T08:31:50.564Z,19.40
2023-05-15T08:34:25.074Z,19.50
2023-05-15T08:37:05.310Z,19.40
2023-05-15T08:39:41.465Z,19.50
2023-05-15T08:42:23.535Z,19.50
2023-05-15T08:45:07.327Z,19.40
2023-05-15T08:47:44.641Z,19.40
2023-05-15T08:50:22.669Z,19.40
2023-05-15T08:53:00.727Z,19.40
2023-05-15T08:55:33.012Z,19.40
2023-05-15T08:58:09.076Z,19.40
2023-05-15T09:00:44.803Z,19.40
2023-05-15T09:03:22.289Z,19.40
2023-05-15T09:05:57.681Z,19.30
2023-05-15T09:08:36.397Z,19.40
2023-05-15T09:11:10.726Z,19.50
2023-05-15T09:13:42.665Z,19.60
2023-05-15T09:16:21.401Z,19.60
2023-05-15T09:19:02.160Z,19.70
2023-05-15T09:21:39.921Z,19.80
2023-05-15T09:24:33.737Z,19.90
2023-05-15T09:27:11.970Z,20.00
2023-05-15T09:29:44.674Z,20.00
2023-05-15T09:32:22.037Z,20.10
2023-05-15T09:35:03.509Z,20.20
2023-05-15T09:37:43.823Z,20.30
2023-05-15T09:40:27.482Z,20.30
2023-05-15T09:43:08.384Z,20.30
2023-05-15T09:45:49.233Z,20.40
2023-05-15T09:48:35.650Z,20.40
2023-05-15T09:51:25.372Z,20.50
2023-05-15T09:54:05.780Z,20.60
2023-05-15T09:57:04.132Z,20.80
2023-05-15T10:00:06.087Z,20.80
2023-05-15T10:02:50.838Z,20.80
2023-05-15T10:05:43.579Z,20.90
2023-05-15T10:08:18.957Z,20.90
2023-05-15T10:11:07.389Z,20.90
2023-05-15T10:13:51.961Z,20.80
2023-05-15T10:16:40.360Z,20.80
2023-05-15T10:19:23.864Z,20.80
2023-05-15T10:22:07.554Z,20.70
2023-05-15T10:24:46.236Z,20.70
2023-05-15T10:27:32.355Z,20.60
2023-05-15T10:30:17.358Z,20.60
2023-05-15T10:33:08.216Z,20.50
2023-05-15T10:35:49.239Z,20.50
2023-05-15T10:38:27.044Z,20.40
2023-05-15T10:41:16.038Z,20.40
2023-05-15T10:44:16.272Z,20.30
2023-05-15T10:46:54.623Z,20.30
2023-05-15T10:49:30.365Z,20.10
2023-05-15T10:52:07.845Z,20.10
2023-05-15T10:54:43.125Z,19.90
2023-05-15T10:57:29.298Z,19.80
2023-05-15T11:00:05.296Z,19.70
2023-05-15T11:02:45.094Z,19.60
2023-05-15T11:05:29.787Z,19.40
2023-05-15T11:08:32.426Z,19.20
2023-05-15T11:11:05.314Z,19.00
2023-05-15T11:14:06.671Z,18.90
2023-05-15T11:17:07.900Z,18.70
2023-05-15T11:19:59.676Z,18.50
2023-05-15T11:22:39.398Z,18.40
2023-05-15T11:25:16.546Z,18.30
2023-05-15T11:27:52.542Z,18.20
2023-05-15T11:30:25.690Z,18.10
2023-05-15T11:33:03.537Z,18.00
2023-05-15T11:35:44.659Z,17.90
2023-05-15T11:38:27.619Z,17.80
2023-05-15T11:41:06.057Z,17.70
2023-05-15T11:43:42.102Z,17.60
2023-05-15T11:46:19.730Z,17.60
2023-05-15T11:48:58.288Z,17.50
2023-05-15T11:51:33.847Z,17.30
2023-05-15T11:54:08.616Z,17.20
2023-05-15T11:56:47.202Z,17.20
2023-05-15T11:59:24.888Z,17.10
2023-05-15T12:02:03.600Z,17.10
2023-05-15T12:04:38.141Z,17.10
2023-05-15T12:07:12.432Z,17.20
2023-05-15T12:09:45.453Z,17.20
2023-05-15T12:12:17.678Z,17.20
2023-05-15T12:14:49.946Z,17.20
2023-05-15T12:17:22.674Z,17.20
2023-05-15T12:19:59.294Z,17.20
2023-05-15T12:22:40.510Z,17.30
2023-05-15T12:25:22.410Z,17.20
2023-05-15T12:28:00.763Z,17.10
2023-05-15T12:30:41.456Z,17.10
2023-05-15T12:33:13.939Z,17.00
2023-05-15T12:35:54.095Z,17.00
2023-05-15T12:38:33.060Z,16.90
2023-05-15T12:41:05.372Z,16.80
2023-05-15T12:43:40.596Z,16.80
2023-05-15T12:46:12.918Z,16.70
2023-05-15T12:48:44.941Z,16.60
2023-05-15T12:51:21.928Z,16.50
2023-05-15T12:53:59.522Z,16.40
2023-05-15T12:56:39.261Z,16.30
2023-05-15T12:59:13.553Z,16.30
2023-05-15T13:01:47.110Z,16.20
2023-05-15T13:04:21.163Z,16.20
2023-05-15T13:06:53.015Z,16.10
2023-05-15T13:09:27.700Z,16.10
2023-05-15T13:11:59.577Z,16.10
2023-05-15T13:14:35.628Z,16.00
2023-05-15T13:17:07.061Z,16.00
2023-05-15T13:19:37.847Z,15.90
2023-05-15T13:22:09.581Z,15.90
2023-05-15T13:24:51.954Z,15.80
2023-05-15T13:27:27.835Z,15.80
2023-05-15T13:30:07.858Z,15.70
2023-05-15T13:32:40.642Z,15.60
2023-05-15T13:35:16.873Z,15.60
2023-05-15T13:37:48.393Z,15.50
2023-05-15T13:40:25.727Z,15.50
2023-05-15T13:42:57.466Z,15.50
2023-05-15T13:45:29.262Z,15.40
2023-05-15T13:48:01.117Z,15.40
2023-05-15T13:50:42.134Z,15.30
2023-05-15T13:53:17.159Z,15.30
2023-05-15T13:55:56.557Z,15.20
2023-05-15T13:58:32.017Z,15.20
2023-05-15T14:01:04.628Z,15.10
2023-05-15T14:03:58.953Z,15.10
2023-05-15T14:06:37.762Z,15.10
2023-05-15T14:09:11.094Z,15.10
2023-05-15T14:12:07.225Z,15.00
2023-05-15T14:14:40.277Z,15.10
2023-05-15T14:17:13.668Z,15.00
2023-05-15T14:19:55.402Z,15.00
2023-05-15T14:22:27.628Z,15.00
2023-05-15T14:25:01.545Z,15.00
2023-05-15T14:27:38.742Z,15.00
2023-05-15T14:30:11.691Z,15.10
2023-05-15T14:32:45.718Z,15.10
2023-05-15T14:35:20.383Z,15.20
2023-05-15T14:37:51.478Z,15.10
2023-05-15T14:40:26.208Z,15.10
2023-05-15T14:43:25.683Z,15.10
2023-05-15T14:45:59.243Z,15.10
2023-05-15T14:48:34.270Z,15.10
2023-05-15T14:51:08.200Z,15.10
2023-05-15T14:53:42.802Z,15.10
2023-05-15T14:56:21.848Z,15.10
2023-05-15T14:58:58.759Z,15.10
2023-05-15T15:01:57.490Z,15.10
2023-05-15T15:05:02.964Z,15.10
2023-05-15T15:08:13.130Z,15.10
2023-05-15T15:15:39.427Z,15.10
2023-05-15T15:18:25.982Z,15.10
2023-05-15T15:21:41.979Z,15.10
2023-05-15T15:24:42.953Z,15.10
2023-05-15T15:27:50.194Z,15.10
2023-05-15T15:30:53.626Z,15.00
2023-05-15T15:33:44.507Z,15.00
2023-05-15T15:36:31.458Z,15.10
2023-05-15T15:39:27.047Z,15.00
2023-05-15T15:42:05.961Z,15.00
2023-05-15T15:45:03.176Z,15.00
2023-05-15T15:47:56.051Z,15.00
2023-05-15T15:51:11.402Z,15.00
2023-05-15T15:57:15.334Z,14.80
2023-05-15T16:03:37.931Z,14.70
2023-05-15T16:06:10.019Z,14.70
2023-05-15T16:08:42.141Z,14.60
2023-05-15T16:11:13.703Z,14.60
2023-05-15T16:13:44.841Z,14.50
2023-05-15T16:16:16.128Z,14.50
2023-05-15T16:18:55.429Z,14.50
2023-05-15T16:21:26.855Z,14.40
2023-05-15T16:24:05.988Z,14.40
2023-05-15T16:26:42.758Z,14.40
2023-05-15T16:29:15.834Z,14.30
2023-05-15T16:31:49.264Z,14.30
2023-05-15T16:34:22.913Z,14.30
2023-05-15T16:36:54.430Z,14.20
2023-05-15T16:39:25.040Z,14.20
2023-05-15T16:41:56.406Z,14.10
2023-05-15T16:44:27.339Z,14.10
2023-05-15T16:47:00.573Z,14.00
2023-05-15T16:49:34.879Z,14.00
2023-05-15T16:52:08.745Z,14.00
2023-05-15T16:54:41.941Z,13.90
2023-05-15T16:57:13.249Z,13.90
2023-05-15T16:59:46.892Z,13.90
2023-05-15T17:02:19.973Z,13.80
2023-05-15T17:04:53.699Z,13.80
2023-05-15T17:07:25.826Z,13.80
2023-05-15T17:09:59.119Z,13.80
2023-05-15T17:12:34.133Z,13.80
2023-05-15T17:15:41.801Z,13.80
2023-05-15T17:18:17.997Z,13.80
2023-05-15T17:20:52.079Z,13.90
2023-05-15T17:23:23.416Z,13.90
2023-05-15T17:25:54.448Z,13.90
2023-05-15T17:28:25.817Z,13.90
2023-05-15T17:30:56.797Z,13.90
2023-05-15T17:33:29.128Z,13.90
2023-05-15T17:36:02.957Z,13.90
2023-05-15T17:38:34.584Z,13.90
2023-05-15T17:41:07.937Z,13.90
2023-05-15T17:43:39.591Z,13.90
2023-05-15T17:46:18.350Z,13.90
2023-05-15T17:48:49.966Z,13.90
2023-05-15T17:51:23.987Z,13.90
2023-05-15T17:53:55.453Z,13.90
2023-05-15T17:56:27.341Z,13.90
2023-05-15T17:58:58.989Z,13.90
2023-05-15T18:01:30.144Z,13.90
2023-05-15T18:04:01.699Z,13.90
2023-05-15T18:06:37.086Z,13.90
2023-05-15T18:09:11.349Z,13.90
2023-05-15T18:11:45.445Z,13.80
2023-05-15T18:14:16.655Z,13.90
2023-05-15T18:16:48.460Z,13.90
2023-05-15T18:19:20.039Z,13.90
2023-05-15T18:21:53.662Z,13.90
2023-05-15T18:24:28.372Z,13.90
2023-05-15T18:27:03.734Z,13.90
2023-05-15T18:29:35.072Z,13.90
2023-05-15T18:32:05.703Z,13.90
2023-05-15T18:34:37.445Z,13.80
2023-05-15T18:37:11.539Z,13.90
2023-05-15T18:39:44.446Z,13.80
2023-05-15T18:42:18.972Z,13.80
2023-05-15T18:44:50.640Z,13.80
2023-05-15T18:47:21.950Z,13.80
2023-05-15T18:49:53.914Z,13.80
2023-05-15T18:52:27.750Z,13.90
2023-05-15T18:54:59.135Z,13.80
2023-05-15T18:57:29.957Z,13.80
2023-05-15T19:00:01.024Z,13.90
2023-05-15T19:02:32.954Z,13.90
2023-05-15T19:05:04.690Z,13.90
2023-05-15T19:07:38.431Z,13.90
2023-05-15T19:10:11.472Z,13.90
2023-05-15T19:12:45.056Z,13.90
2023-05-15T19:15:18.373Z,13.90
2023-05-15T19:17:49.510Z,13.90
2023-05-15T19:20:21.161Z,13.90
2023-05-15T19:22:54.953Z,13.90
2023-05-15T19:25:26.940Z,13.90
2023-05-15T19:27:57.991Z,13.90
2023-05-15T19:30:30.203Z,14.00
2023-05-15T19:33:01.213Z,13.90
2023-05-15T19:35:34.525Z,13.90
2023-05-15T19:38:10.385Z,13.90
2023-05-15T19:40:42.422Z,13.90
2023-05-15T19:43:17.739Z,13.90
2023-05-15T19:45:49.687Z,14.00
2023-05-15T19:48:20.597Z,14.00
2023-05-15T19:50:53.617Z,14.00
2023-05-15T19:53:27.651Z,14.00
2023-05-15T19:56:26.208Z,14.00
2023-05-15T19:59:18.786Z,14.00
2023-05-15T20:01:50.534Z,14.00
2023-05-15T20:04:22.020Z,14.00
2023-05-15T20:06:54.677Z,14.00
2023-05-15T20:09:28.641Z,14.00
2023-05-15T20:11:59.886Z,14.00
2023-05-15T20:14:30.948Z,14.00
2023-05-15T20:17:02.365Z,14.00
2023-05-15T20:19:34.060Z,14.10
2023-05-15T20:22:05.380Z,14.10
2023-05-15T20:24:41.608Z,14.10
2023-05-15T20:27:13.595Z,14.10
2023-05-15T20:29:45.562Z,14.10
2023-05-15T20:32:16.784Z,14.10
2023-05-15T20:34:47.942Z,14.10
2023-05-15T20:37:19.665Z,14.10
2023-05-15T20:40:02.050Z,14.10
2023-05-15T20:42:34.927Z,14.20
2023-05-15T20:45:05.908Z,14.10
2023-05-15T20:47:38.362Z,14.10
2023-05-15T20:50:10.896Z,14.10
2023-05-15T20:52:42.905Z,14.10
2023-05-15T20:55:20.597Z,14.10
2023-05-15T20:57:53.849Z,14.10
2023-05-15T21:00:25.801Z,14.20
2023-05-15T21:03:12.413Z,14.10
2023-05-15T21:06:02.453Z,14.10
2023-05-15T21:08:38.179Z,14.10
2023-05-15T21:11:12.365Z,14.10
2023-05-15T21:13:49.828Z,14.10
2023-05-15T21:16:25.128Z,14.10
2023-05-15T21:19:15.130Z,14.10
2023-05-15T21:22:01.642Z,14.10
2023-05-15T21:27:36.911Z,14.00
2023-05-15T21:30:33.273Z,14.00
2023-05-15T21:33:17.211Z,14.00
2023-05-15T21:35:50.773Z,13.90
2023-05-15T21:38:22.170Z,13.90
2023-05-15T21:40:54.879Z,13.90
2023-05-15T21:43:30.461Z,13.90
2023-05-15T21:46:02.675Z,13.90
2023-05-15T21:48:37.805Z,14.00
2023-05-15T21:51:09.743Z,13.90
2023-05-15T21:53:43.390Z,13.90
2023-05-15T21:56:20.534Z,13.90
2023-05-15T21:58:58.339Z,14.00
2023-05-15T22:01:30.551Z,14.00
2023-05-15T22:04:01.817Z,14.00
2023-05-15T22:06:33.294Z,14.00
2023-05-15T22:09:04.115Z,13.90
2023-05-15T22:11:35.284Z,14.00
2023-05-15T22:14:10.271Z,14.00
2023-05-15T22:16:45.507Z,13.90
2023-05-15T22:19:31.519Z,13.90
2023-05-15T22:22:07.102Z,14.00
2023-05-15T22:24:39.549Z,14.00
2023-05-15T22:27:19.986Z,14.00
2023-05-15T22:29:55.071Z,14.00
2023-05-15T22:32:27.778Z,14.00
2023-05-15T22:35:05.002Z,14.00
2023-05-15T22:37:45.752Z,14.00
2023-05-15T22:40:20.983Z,14.00
2023-05-15T22:43:07.947Z,14.00
2023-05-15T22:45:42.743Z,14.00
2023-05-15T22:48:14.811Z,14.00
2023-05-15T22:50:46.798Z,14.00
2023-05-15T22:53:21.558Z,14.00
2023-05-15T22:55:53.391Z,14.00
2023-05-15T22:58:24.922Z,14.00
2023-05-15T23:00:58.192Z,14.10
2023-05-15T23:03:29.676Z,14.10
2023-05-15T23:06:00.748Z,14.00
2023-05-15T23:08:32.307Z,14.10
2023-05-15T23:11:23.636Z,14.00
2023-05-15T23:14:04.218Z,14.10
2023-05-15T23:16:39.668Z,14.00
2023-05-15T23:19:18.008Z,14.00
2023-05-15T23:21:53.752Z,14.10
2023-05-15T23:24:25.383Z,14.10
2023-05-15T23:26:56.414Z,14.10
2023-05-15T23:29:28.012Z,14.10
2023-05-15T23:32:02.788Z,14.10
2023-05-15T23:34:34.331Z,14.10
2023-05-15T23:37:13.574Z,14.10
2023-05-15T23:39:46.586Z,14.10
2023-05-15T23:42:22.263Z,14.20
2023-05-15T23:44:53.688Z,14.10
2023-05-15T23:47:28.773Z,14.10
2023-05-15T23:50:02.969Z,14.10
2023-05-15T23:52:33.974Z,14.10
2023-05-15T23:55:09.345Z,14.10
2023-05-15T23:57:40.505Z,14.10
